sensor_id;sensor_type;location;lat;lon;timestamp;pressure;altitude;pressure_sealevel;temperature;humidity
80124;BME280;69433;48.642;9.142;2023-06-26T00:01:13;96996.56;;;27.97;38.30
80124;BME280;69433;48.642;9.142;2023-06-26T00:03:39;96993.56;;;27.95;38.55
80124;BME280;69433;48.642;9.142;2023-06-26T00:06:04;96998.97;;;27.95;38.55
80124;BME280;69433;48.642;9.142;2023-06-26T00:08:29;96993.56;;;27.95;38.38
80124;BME280;69433;48.642;9.142;2023-06-26T00:10:54;97001.34;;;27.93;38.57
80124;BME280;69433;48.642;9.142;2023-06-26T00:13:20;97000.59;;;27.93;38.36
80124;BME280;69433;48.642;9.142;2023-06-26T00:15:45;96998.31;;;27.91;38.43
80124;BME280;69433;48.642;9.142;2023-06-26T00:18:10;96998.31;;;27.91;38.59
80124;BME280;69433;48.642;9.142;2023-06-26T00:20:36;96998.31;;;27.91;38.62
80124;BME280;69433;48.642;9.142;2023-06-26T00:23:01;97007.63;;;27.90;38.50
80124;BME280;69433;48.642;9.142;2023-06-26T00:25:29;97007.63;;;27.90;38.33
80124;BME280;69433;48.642;9.142;2023-06-26T00:27:54;97006.09;;;27.89;38.38
80124;BME280;69433;48.642;9.142;2023-06-26T00:30:19;97006.09;;;27.89;38.30
80124;BME280;69433;48.642;9.142;2023-06-26T00:32:52;97007.28;;;27.88;38.52
80124;BME280;69433;48.642;9.142;2023-06-26T00:35:17;97007.28;;;27.88;38.67
80124;BME280;69433;48.642;9.142;2023-06-26T00:37:42;97010.47;;;27.87;38.58
80124;BME280;69433;48.642;9.142;2023-06-26T00:40:08;97003.84;;;27.88;38.61
80124;BME280;69433;48.642;9.142;2023-06-26T00:42:34;96997.72;;;27.87;38.31
80124;BME280;69433;48.642;9.142;2023-06-26T00:44:59;97002.34;;;27.87;38.40
80124;BME280;69433;48.642;9.142;2023-06-26T00:47:24;96996.50;;;27.88;38.47
80124;BME280;69433;48.642;9.142;2023-06-26T00:49:51;96995.31;;;27.89;38.58
80124;BME280;69433;48.642;9.142;2023-06-26T00:52:17;96994.25;;;27.87;38.60
80124;BME280;69433;48.642;9.142;2023-06-26T00:54:42;96994.25;;;27.87;38.24
80124;BME280;69433;48.642;9.142;2023-06-26T00:57:08;96996.94;;;27.87;38.40
80124;BME280;69433;48.642;9.142;2023-06-26T00:59:34;97003.53;;;27.86;38.52
80124;BME280;69433;48.642;9.142;2023-06-26T01:01:59;97001.59;;;27.86;38.54
80124;BME280;69433;48.642;9.142;2023-06-26T01:04:25;96994.69;;;27.85;38.55
80124;BME280;69433;48.642;9.142;2023-06-26T01:07:03;96990.03;;;27.86;38.48
80124;BME280;69433;48.642;9.142;2023-06-26T01:09:30;96993.16;;;27.84;38.28
80124;BME280;69433;48.642;9.142;2023-06-26T01:11:56;96993.94;;;27.85;38.62
80124;BME280;69433;48.642;9.142;2023-06-26T01:14:21;96990.16;;;27.82;38.35
80124;BME280;69433;48.642;9.142;2023-06-26T01:16:47;96988.63;;;27.81;38.50
80124;BME280;69433;48.642;9.142;2023-06-26T01:19:19;96997.16;;;27.80;38.46
80124;BME280;69433;48.642;9.142;2023-06-26T01:21:51;96991.00;;;27.79;38.56
80124;BME280;69433;48.642;9.142;2023-06-26T01:24:25;96994.47;;;27.80;38.58
80124;BME280;69433;48.642;9.142;2023-06-26T01:26:53;96996.41;;;27.79;38.42
80124;BME280;69433;48.642;9.142;2023-06-26T01:29:19;96985.94;;;27.81;38.29
80124;BME280;69433;48.642;9.142;2023-06-26T01:31:48;96985.59;;;27.79;38.57
80124;BME280;69433;48.642;9.142;2023-06-26T01:34:17;96978.25;;;27.80;38.46
80124;BME280;69433;48.642;9.142;2023-06-26T01:36:44;96978.69;;;27.78;38.53
80124;BME280;69433;48.642;9.142;2023-06-26T01:39:09;96978.69;;;27.78;38.50
80124;BME280;69433;48.642;9.142;2023-06-26T01:41:34;96970.59;;;27.78;38.45
80124;BME280;69433;48.642;9.142;2023-06-26T01:47:01;96970.28;;;27.76;38.49
80124;BME280;69433;48.642;9.142;2023-06-26T01:55:31;96968.78;;;27.75;38.46
80124;BME280;69433;48.642;9.142;2023-06-26T01:58:01;96966.50;;;27.74;38.31
80124;BME280;69433;48.642;9.142;2023-06-26T02:00:27;96965.31;;;27.75;38.52
80124;BME280;69433;48.642;9.142;2023-06-26T02:02:53;96968.47;;;27.73;38.62
80124;BME280;69433;48.642;9.142;2023-06-26T02:05:18;96966.94;;;27.72;38.75
80124;BME280;69433;48.642;9.142;2023-06-26T02:07:43;96963.50;;;27.72;38.58
80124;BME280;69433;48.642;9.142;2023-06-26T02:10:09;96968.13;;;27.71;38.41
80124;BME280;69433;48.642;9.142;2023-06-26T02:12:36;96971.16;;;27.73;38.35
80124;BME280;69433;48.642;9.142;2023-06-26T02:15:02;96961.53;;;27.72;38.46
80124;BME280;69433;48.642;9.142;2023-06-26T02:17:28;96966.63;;;27.70;38.68
80124;BME280;69433;48.642;9.142;2023-06-26T02:19:53;96964.25;;;27.72;38.55
80124;BME280;69433;48.642;9.142;2023-06-26T02:22:18;96958.84;;;27.72;38.23
80124;BME280;69433;48.642;9.142;2023-06-26T02:24:45;96965.75;;;27.73;38.43
80124;BME280;69433;48.642;9.142;2023-06-26T02:27:10;96971.91;;;27.74;38.38
80124;BME280;69433;48.642;9.142;2023-06-26T02:29:36;96965.00;;;27.73;38.45
80124;BME280;69433;48.642;9.142;2023-06-26T02:32:01;96968.13;;;27.71;38.59
80124;BME280;69433;48.642;9.142;2023-06-26T02:34:27;96973.53;;;27.71;38.52
80124;BME280;69433;48.642;9.142;2023-06-26T02:36:52;96977.44;;;27.70;38.54
80124;BME280;69433;48.642;9.142;2023-06-26T02:39:20;96972.03;;;27.70;38.41
80124;BME280;69433;48.642;9.142;2023-06-26T02:41:46;96970.50;;;27.69;38.40
80124;BME280;69433;48.642;9.142;2023-06-26T02:44:11;96965.88;;;27.69;38.40
80124;BME280;69433;48.642;9.142;2023-06-26T02:46:37;96969.31;;;27.70;38.53
80124;BME280;69433;48.642;9.142;2023-06-26T02:49:03;96971.28;;;27.69;38.51
80124;BME280;69433;48.642;9.142;2023-06-26T02:51:34;96962.88;;;27.67;38.47
80124;BME280;69433;48.642;9.142;2023-06-26T02:53:59;96969.03;;;27.68;38.43
80124;BME280;69433;48.642;9.142;2023-06-26T02:56:25;96977.13;;;27.68;38.67
80124;BME280;69433;48.642;9.142;2023-06-26T02:58:54;96974.09;;;27.66;38.50
80124;BME280;69433;48.642;9.142;2023-06-26T03:01:20;96976.81;;;27.66;38.43
80124;BME280;69433;48.642;9.142;2023-06-26T03:03:45;96975.28;;;27.65;38.49
80124;BME280;69433;48.642;9.142;2023-06-26T03:06:12;96976.81;;;27.66;38.36
80124;BME280;69433;48.642;9.142;2023-06-26T03:08:39;96977.69;;;27.63;38.56
80124;BME280;69433;48.642;9.142;2023-06-26T03:11:05;96972.28;;;27.63;38.51
80124;BME280;69433;48.642;9.142;2023-06-26T03:13:32;96974.22;;;27.62;38.52
80124;BME280;69433;48.642;9.142;2023-06-26T03:15:57;96974.66;;;27.61;38.55
80124;BME280;69433;48.642;9.142;2023-06-26T03:18:22;96972.28;;;27.63;38.52
80124;BME280;69433;48.642;9.142;2023-06-26T03:20:48;96973.78;;;27.64;38.53
80124;BME280;69433;48.642;9.142;2023-06-26T03:23:13;96968.81;;;27.62;38.56
80124;BME280;69433;48.642;9.142;2023-06-26T03:25:38;96972.28;;;27.63;38.53
80124;BME280;69433;48.642;9.142;2023-06-26T03:28:04;96976.91;;;27.62;38.59
80124;BME280;69433;48.642;9.142;2023-06-26T03:30:29;96968.06;;;27.62;38.50
80124;BME280;69433;48.642;9.142;2023-06-26T03:32:54;96975.41;;;27.61;38.46
80124;BME280;69433;48.642;9.142;2023-06-26T03:35:19;96973.47;;;27.62;38.41
80124;BME280;69433;48.642;9.142;2023-06-26T03:37:45;96974.66;;;27.61;38.48
80124;BME280;69433;48.642;9.142;2023-06-26T03:40:10;96974.66;;;27.61;38.46
80124;BME280;69433;48.642;9.142;2023-06-26T03:42:36;96972.72;;;27.61;38.41
80124;BME280;69433;48.642;9.142;2023-06-26T03:45:01;96978.09;;;27.61;38.50
80124;BME280;69433;48.642;9.142;2023-06-26T03:47:27;96974.66;;;27.61;38.64
80124;BME280;69433;48.642;9.142;2023-06-26T03:49:52;96978.25;;;27.58;38.53
80124;BME280;69433;48.642;9.142;2023-06-26T03:52:17;96975.09;;;27.59;38.53
80124;BME280;69433;48.642;9.142;2023-06-26T03:54:42;96980.47;;;27.59;38.40
80124;BME280;69433;48.642;9.142;2023-06-26T03:57:08;96979.28;;;27.60;38.35
80124;BME280;69433;48.642;9.142;2023-06-26T03:59:33;96970.91;;;27.58;38.53
80124;BME280;69433;48.642;9.142;2023-06-26T04:01:59;96976.59;;;27.60;38.37
80124;BME280;69433;48.642;9.142;2023-06-26T04:04:24;96981.69;;;27.58;38.23
80124;BME280;69433;48.642;9.142;2023-06-26T04:06:49;96974.03;;;27.57;38.54
80124;BME280;69433;48.642;9.142;2023-06-26T04:09:15;96983.94;;;27.60;38.44
80124;BME280;69433;48.642;9.142;2023-06-26T04:11:41;96987.09;;;27.58;38.60
80124;BME280;69433;48.642;9.142;2023-06-26T04:14:06;96979.44;;;27.57;38.59
80124;BME280;69433;48.642;9.142;2023-06-26T04:16:31;96983.31;;;27.56;38.42
80124;BME280;69433;48.642;9.142;2023-06-26T04:18:57;96984.41;;;27.58;38.25
80124;BME280;69433;48.642;9.142;2023-06-26T04:21:23;96982.88;;;27.57;38.72
80124;BME280;69433;48.642;9.142;2023-06-26T04:23:51;96985.59;;;27.57;38.57
80124;BME280;69433;48.642;9.142;2023-06-26T04:26:16;96979.72;;;27.59;38.64
80124;BME280;69433;48.642;9.142;2023-06-26T04:28:42;96989.81;;;27.58;38.66
80124;BME280;69433;48.642;9.142;2023-06-26T04:31:08;96985.59;;;27.57;38.61
80124;BME280;69433;48.642;9.142;2023-06-26T04:33:34;96987.53;;;27.57;38.70
80124;BME280;69433;48.642;9.142;2023-06-26T04:36:01;96986.34;;;27.58;38.48
80124;BME280;69433;48.642;9.142;2023-06-26T04:38:28;96988.72;;;27.56;38.68
80124;BME280;69433;48.642;9.142;2023-06-26T04:40:53;96984.84;;;27.57;38.54
80124;BME280;69433;48.642;9.142;2023-06-26T04:43:21;96979.09;;;27.55;38.62
80124;BME280;69433;48.642;9.142;2023-06-26T04:45:46;96987.22;;;27.55;38.54
80124;BME280;69433;48.642;9.142;2023-06-26T04:48:11;96981.81;;;27.55;38.64
80124;BME280;69433;48.642;9.142;2023-06-26T04:50:37;96983.31;;;27.56;38.60
80124;BME280;69433;48.642;9.142;2023-06-26T04:53:02;96977.91;;;27.56;38.53
80124;BME280;69433;48.642;9.142;2023-06-26T04:55:27;96984.06;;;27.56;38.57
80124;BME280;69433;48.642;9.142;2023-06-26T04:57:54;96979.44;;;27.57;38.48
80124;BME280;69433;48.642;9.142;2023-06-26T05:00:19;96989.66;;;27.62;38.72
80124;BME280;69433;48.642;9.142;2023-06-26T05:02:45;96980.94;;;27.58;38.68
80124;BME280;69433;48.642;9.142;2023-06-26T05:05:10;96974.03;;;27.57;38.56
80124;BME280;69433;48.642;9.142;2023-06-26T05:07:35;96979.72;;;27.59;38.42
80124;BME280;69433;48.642;9.142;2023-06-26T05:10:01;96974.53;;;27.64;38.63
80124;BME280;69433;48.642;9.142;2023-06-26T05:12:26;96965.56;;;27.67;38.51
80124;BME280;69433;48.642;9.142;2023-06-26T05:14:51;96974.09;;;27.66;38.57
80124;BME280;69433;48.642;9.142;2023-06-26T05:17:16;96972.16;;;27.66;38.55
80124;BME280;69433;48.642;9.142;2023-06-26T05:19:45;96974.44;;;27.68;38.64
80124;BME280;69433;48.642;9.142;2023-06-26T05:22:12;96973.53;;;27.71;38.62
80124;BME280;69433;48.642;9.142;2023-06-26T05:24:38;96976.56;;;27.73;38.46
80124;BME280;69433;48.642;9.142;2023-06-26T05:27:04;96973.00;;;27.76;38.51
80124;BME280;69433;48.642;9.142;2023-06-26T05:29:31;96974.81;;;27.79;38.35
80124;BME280;69433;48.642;9.142;2023-06-26T05:31:57;96977.06;;;27.81;38.42
80124;BME280;69433;48.642;9.142;2023-06-26T05:34:23;96975.13;;;27.81;38.51
80124;BME280;69433;48.642;9.142;2023-06-26T05:36:50;96981.59;;;27.84;38.27
80124;BME280;69433;48.642;9.142;2023-06-26T05:39:16;96983.88;;;27.85;38.40
80124;BME280;69433;48.642;9.142;2023-06-26T05:41:44;96988.84;;;27.87;38.34
80124;BME280;69433;48.642;9.142;2023-06-26T05:44:09;96984.50;;;27.89;38.26
80124;BME280;69433;48.642;9.142;2023-06-26T05:46:34;96981.34;;;27.91;38.32
80124;BME280;69433;48.642;9.142;2023-06-26T05:49:07;96986.31;;;27.92;38.49
80124;BME280;69433;48.642;9.142;2023-06-26T05:51:32;96987.06;;;27.93;38.19
80124;BME280;69433;48.642;9.142;2023-06-26T05:53:58;96984.38;;;27.93;38.51
80124;BME280;69433;48.642;9.142;2023-06-26T05:56:23;96975.09;;;27.94;38.44
80124;BME280;69433;48.642;9.142;2023-06-26T05:58:49;96980.50;;;27.94;38.31
80124;BME280;69433;48.642;9.142;2023-06-26T06:01:15;96977.34;;;27.95;38.56
80124;BME280;69433;48.642;9.142;2023-06-26T06:03:40;96983.38;;;27.99;38.52
80124;BME280;69433;48.642;9.142;2023-06-26T06:06:06;96976.44;;;27.98;38.46
80124;BME280;69433;48.642;9.142;2023-06-26T06:08:31;96971.38;;;28.00;38.32
80124;BME280;69433;48.642;9.142;2023-06-26T06:10:57;96970.19;;;28.01;38.21
80124;BME280;69433;48.642;9.142;2023-06-26T06:13:22;96975.91;;;28.03;38.14
80124;BME280;69433;48.642;9.142;2023-06-26T06:15:47;96978.94;;;28.05;38.18
80124;BME280;69433;48.642;9.142;2023-06-26T06:18:13;96977.72;;;28.06;38.45
80124;BME280;69433;48.642;9.142;2023-06-26T06:20:38;96980.72;;;28.08;38.17
80124;BME280;69433;48.642;9.142;2023-06-26T06:23:04;96981.47;;;28.09;38.12
80124;BME280;69433;48.642;9.142;2023-06-26T06:25:29;96983.75;;;28.11;38.47
80124;BME280;69433;48.642;9.142;2023-06-26T06:27:54;96977.91;;;28.12;38.33
80124;BME280;69433;48.642;9.142;2023-06-26T06:30:20;96978.22;;;28.14;38.27
80124;BME280;69433;48.642;9.142;2023-06-26T06:32:45;96977.78;;;28.16;38.40
80124;BME280;69433;48.642;9.142;2023-06-26T06:35:15;96973.59;;;28.15;38.43
80124;BME280;69433;48.642;9.142;2023-06-26T06:37:40;96975.84;;;28.16;38.31
80124;BME280;69433;48.642;9.142;2023-06-26T06:40:06;96975.72;;;28.20;38.44
80124;BME280;69433;48.642;9.142;2023-06-26T06:42:32;96979.50;;;28.22;38.36
80124;BME280;69433;48.642;9.142;2023-06-26T06:44:58;96975.63;;;28.23;38.45
80124;BME280;69433;48.642;9.142;2023-06-26T06:47:23;96977.88;;;28.25;38.24
80124;BME280;69433;48.642;9.142;2023-06-26T06:49:48;96973.09;;;28.29;38.11
80124;BME280;69433;48.642;9.142;2023-06-26T06:52:13;96988.44;;;28.32;38.39
80124;BME280;69433;48.642;9.142;2023-06-26T06:54:52;96976.75;;;28.35;38.09
80124;BME280;69433;48.642;9.142;2023-06-26T06:57:19;96980.50;;;28.37;38.33
80124;BME280;69433;48.642;9.142;2023-06-26T06:59:44;96980.81;;;28.39;38.00
80124;BME280;69433;48.642;9.142;2023-06-26T07:02:10;96977.66;;;28.41;38.29
80124;BME280;69433;48.642;9.142;2023-06-26T07:04:35;96983.41;;;28.43;38.21
80124;BME280;69433;48.642;9.142;2023-06-26T07:07:00;96977.09;;;28.46;37.92
80124;BME280;69433;48.642;9.142;2023-06-26T07:09:25;96976.22;;;28.49;37.99
80124;BME280;69433;48.642;9.142;2023-06-26T07:11:51;96978.47;;;28.51;38.12
80124;BME280;69433;48.642;9.142;2023-06-26T07:14:16;96973.81;;;28.51;38.14
80124;BME280;69433;48.642;9.142;2023-06-26T07:16:42;96979.53;;;28.53;38.37
80124;BME280;69433;48.642;9.142;2023-06-26T07:19:08;96972.94;;;28.54;38.21
80124;BME280;69433;48.642;9.142;2023-06-26T07:21:33;96974.44;;;28.55;37.89
80124;BME280;69433;48.642;9.142;2023-06-26T07:23:58;96969.00;;;28.55;38.01
80124;BME280;69433;48.642;9.142;2023-06-26T07:26:23;96975.81;;;28.60;37.94
80124;BME280;69433;48.642;9.142;2023-06-26T07:28:49;96973.56;;;28.58;38.24
80124;BME280;69433;48.642;9.142;2023-06-26T07:31:14;96976.56;;;28.60;37.94
80124;BME280;69433;48.642;9.142;2023-06-26T07:33:41;96976.56;;;28.60;37.99
80124;BME280;69433;48.642;9.142;2023-06-26T07:36:07;96978.41;;;28.63;37.91
80124;BME280;69433;48.642;9.142;2023-06-26T07:38:38;96979.88;;;28.64;38.22
80124;BME280;69433;48.642;9.142;2023-06-26T07:41:03;96984.84;;;28.66;38.20
80124;BME280;69433;48.642;9.142;2023-06-26T07:43:29;96988.63;;;28.68;37.71
80124;BME280;69433;48.642;9.142;2023-06-26T07:45:54;96994.03;;;28.68;37.92
80124;BME280;69433;48.642;9.142;2023-06-26T07:48:19;96990.13;;;28.69;38.10
80124;BME280;69433;48.642;9.142;2023-06-26T07:50:45;96997.06;;;28.70;37.83
80124;BME280;69433;48.642;9.142;2023-06-26T07:53:10;96991.66;;;28.70;37.89
80124;BME280;69433;48.642;9.142;2023-06-26T07:55:35;96985.34;;;28.73;38.08
80124;BME280;69433;48.642;9.142;2023-06-26T07:58:00;96986.84;;;28.74;37.85
80124;BME280;69433;48.642;9.142;2023-06-26T08:00:26;96993.00;;;28.75;37.92
80124;BME280;69433;48.642;9.142;2023-06-26T08:02:52;96989.09;;;28.76;37.87
80124;BME280;69433;48.642;9.142;2023-06-26T08:05:17;96987.50;;;28.78;37.58
80124;BME280;69433;48.642;9.142;2023-06-26T08:07:42;96983.59;;;28.79;37.84
80124;BME280;69433;48.642;9.142;2023-06-26T08:10:08;96982.09;;;28.78;37.91
80124;BME280;69433;48.642;9.142;2023-06-26T08:12:33;96974.72;;;28.79;38.14
80124;BME280;69433;48.642;9.142;2023-06-26T08:15:02;96970.38;;;28.82;38.11
80124;BME280;69433;48.642;9.142;2023-06-26T08:17:28;96971.91;;;28.83;37.68
80124;BME280;69433;48.642;9.142;2023-06-26T08:19:53;96974.13;;;28.84;37.72
80124;BME280;69433;48.642;9.142;2023-06-26T08:22:18;96974.44;;;28.86;38.09
80124;BME280;69433;48.642;9.142;2023-06-26T08:24:44;96967.84;;;28.87;38.11
80124;BME280;69433;48.642;9.142;2023-06-26T08:27:09;96965.88;;;28.88;37.97
80124;BME280;69433;48.642;9.142;2023-06-26T08:29:34;96959.28;;;28.89;38.06
80124;BME280;69433;48.642;9.142;2023-06-26T08:31:59;96978.53;;;28.91;37.67
80124;BME280;69433;48.642;9.142;2023-06-26T08:34:27;96962.28;;;28.91;37.84
80124;BME280;69433;48.642;9.142;2023-06-26T08:36:52;96969.22;;;28.92;37.62
80124;BME280;69433;48.642;9.142;2023-06-26T08:39:18;96964.84;;;28.94;37.59
80124;BME280;69433;48.642;9.142;2023-06-26T08:41:44;96961.38;;;28.94;37.75
80124;BME280;69433;48.642;9.142;2023-06-26T08:44:09;96960.50;;;28.97;37.75
80124;BME280;69433;48.642;9.142;2023-06-26T08:46:35;96959.75;;;28.96;37.77
80124;BME280;69433;48.642;9.142;2023-06-26T08:49:05;96955.09;;;28.97;37.55
80124;BME280;69433;48.642;9.142;2023-06-26T08:51:33;96962.31;;;29.00;38.01
80124;BME280;69433;48.642;9.142;2023-06-26T08:54:01;96954.53;;;29.02;37.54
80124;BME280;69433;48.642;9.142;2023-06-26T08:56:40;96959.19;;;29.01;37.58
80124;BME280;69433;48.642;9.142;2023-06-26T08:59:07;96959.94;;;29.02;38.01
80124;BME280;69433;48.642;9.142;2023-06-26T09:01:32;96960.22;;;29.04;37.61
80124;BME280;69433;48.642;9.142;2023-06-26T09:03:58;96960.22;;;29.04;37.99
80124;BME280;69433;48.642;9.142;2023-06-26T09:06:23;96953.16;;;29.06;37.86
80124;BME280;69433;48.642;9.142;2023-06-26T09:08:49;96951.53;;;29.09;37.39
80124;BME280;69433;48.642;9.142;2023-06-26T09:11:14;96956.19;;;29.08;37.56
80124;BME280;69433;48.642;9.142;2023-06-26T09:13:40;96951.09;;;29.10;37.41
80124;BME280;69433;48.642;9.142;2023-06-26T09:16:08;96946.41;;;29.11;37.70
80124;BME280;69433;48.642;9.142;2023-06-26T09:18:34;96949.13;;;29.11;37.50
80124;BME280;69433;48.642;9.142;2023-06-26T09:21:00;96947.19;;;29.11;37.76
80124;BME280;69433;48.642;9.142;2023-06-26T09:23:32;96950.63;;;29.12;37.47
80124;BME280;69433;48.642;9.142;2023-06-26T09:25:57;96947.00;;;29.15;37.89
80124;BME280;69433;48.642;9.142;2023-06-26T09:28:22;96945.81;;;29.16;37.75
80124;BME280;69433;48.642;9.142;2023-06-26T09:30:48;96941.47;;;29.19;37.42
80124;BME280;69433;48.642;9.142;2023-06-26T09:33:16;96947.31;;;29.17;37.79
80124;BME280;69433;48.642;9.142;2023-06-26T09:35:43;96938.91;;;29.15;37.79
80124;BME280;69433;48.642;9.142;2023-06-26T09:38:08;96935.75;;;29.16;37.39
80124;BME280;69433;48.642;9.142;2023-06-26T09:40:34;96938.00;;;29.18;37.81
80124;BME280;69433;48.642;9.142;2023-06-26T09:43:04;96939.50;;;29.19;37.40
80124;BME280;69433;48.642;9.142;2023-06-26T09:45:34;96939.81;;;29.21;37.70
80124;BME280;69433;48.642;9.142;2023-06-26T09:48:00;96942.06;;;29.23;37.74
80124;BME280;69433;48.642;9.142;2023-06-26T09:50:27;96940.41;;;29.25;37.77
80124;BME280;69433;48.642;9.142;2023-06-26T09:52:53;96936.50;;;29.26;37.73
80124;BME280;69433;48.642;9.142;2023-06-26T09:55:19;96929.59;;;29.25;37.64
80124;BME280;69433;48.642;9.142;2023-06-26T09:57:47;96927.50;;;29.29;37.81
80124;BME280;69433;48.642;9.142;2023-06-26T10:00:13;96932.16;;;29.29;37.87
80124;BME280;69433;48.642;9.142;2023-06-26T10:02:39;96927.81;;;29.31;37.27
80124;BME280;69433;48.642;9.142;2023-06-26T10:05:05;96924.63;;;29.33;37.31
80124;BME280;69433;48.642;9.142;2023-06-26T10:07:30;96924.94;;;29.35;37.17
80124;BME280;69433;48.642;9.142;2023-06-26T10:09:57;96923.72;;;29.36;37.12
80124;BME280;69433;48.642;9.142;2023-06-26T10:12:32;96926.03;;;29.37;37.24
80124;BME280;69433;48.642;9.142;2023-06-26T10:14:58;96926.34;;;29.39;37.35
80124;BME280;69433;48.642;9.142;2023-06-26T10:17:28;96937.16;;;29.39;37.58
80124;BME280;69433;48.642;9.142;2023-06-26T10:19:57;96928.59;;;29.41;37.23
80124;BME280;69433;48.642;9.142;2023-06-26T10:22:27;96923.91;;;29.41;37.31
80124;BME280;69433;48.642;9.142;2023-06-26T10:24:55;96935.50;;;29.42;37.60
80124;BME280;69433;48.642;9.142;2023-06-26T10:27:23;96925.41;;;29.42;37.57
80124;BME280;69433;48.642;9.142;2023-06-26T10:29:51;96936.56;;;29.44;37.55
80124;BME280;69433;48.642;9.142;2023-06-26T10:32:20;96940.47;;;29.43;37.52
80124;BME280;69433;48.642;9.142;2023-06-26T10:34:46;96942.41;;;29.43;37.50
80124;BME280;69433;48.642;9.142;2023-06-26T10:37:12;96936.25;;;29.42;37.50
80124;BME280;69433;48.642;9.142;2023-06-26T10:42:18;96942.59;;;29.39;37.51
80124;BME280;69433;48.642;9.142;2023-06-26T10:44:46;96943.03;;;29.38;37.28
80124;BME280;69433;48.642;9.142;2023-06-26T10:47:31;96947.34;;;29.35;37.51
80124;BME280;69433;48.642;9.142;2023-06-26T10:49:57;96952.78;;;29.35;37.38
80124;BME280;69433;48.642;9.142;2023-06-26T10:52:26;96948.44;;;29.38;37.51
80124;BME280;69433;48.642;9.142;2023-06-26T10:54:54;96955.69;;;29.41;37.47
80124;BME280;69433;48.642;9.142;2023-06-26T10:57:25;96947.84;;;29.43;37.17
80124;BME280;69433;48.642;9.142;2023-06-26T11:00:08;96955.53;;;29.44;37.61
80124;BME280;69433;48.642;9.142;2023-06-26T11:02:47;96956.28;;;29.45;37.33
80124;BME280;69433;48.642;9.142;2023-06-26T11:05:23;96949.66;;;29.46;37.63
80124;BME280;69433;48.642;9.142;2023-06-26T11:08:03;96951.59;;;29.45;37.64
80124;BME280;69433;48.642;9.142;2023-06-26T11:10:48;96957.03;;;29.45;37.16
80124;BME280;69433;48.642;9.142;2023-06-26T11:13:14;96964.72;;;29.47;37.22
80124;BME280;69433;48.642;9.142;2023-06-26T11:15:42;96960.03;;;29.47;37.54
80124;BME280;69433;48.642;9.142;2023-06-26T11:18:09;96956.88;;;29.49;37.33
80124;BME280;69433;48.642;9.142;2023-06-26T11:20:34;96960.03;;;29.47;37.60
80124;BME280;69433;48.642;9.142;2023-06-26T11:23:00;96973.59;;;29.47;37.60
80124;BME280;69433;48.642;9.142;2023-06-26T11:25:25;96976.28;;;29.47;37.45
80124;BME280;69433;48.642;9.142;2023-06-26T11:27:53;96977.38;;;29.50;37.16
80124;BME280;69433;48.642;9.142;2023-06-26T11:30:38;96981.56;;;29.51;37.01
80124;BME280;69433;48.642;9.142;2023-06-26T11:33:10;96981.09;;;29.52;37.43
80124;BME280;69433;48.642;9.142;2023-06-26T11:35:35;96981.09;;;29.52;37.55
80124;BME280;69433;48.642;9.142;2023-06-26T11:38:02;96971.47;;;29.51;37.36
80124;BME280;69433;48.642;9.142;2023-06-26T11:40:36;96976.13;;;29.51;37.29
80124;BME280;69433;48.642;9.142;2023-06-26T11:43:02;96980.81;;;29.50;37.18
80124;BME280;69433;48.642;9.142;2023-06-26T11:45:29;96983.81;;;29.52;37.42
80124;BME280;69433;48.642;9.142;2023-06-26T11:47:56;96977.94;;;29.54;37.04
80124;BME280;69433;48.642;9.142;2023-06-26T11:50:22;96979.00;;;29.57;37.10
80124;BME280;69433;48.642;9.142;2023-06-26T11:52:53;96980.22;;;29.56;37.02
80124;BME280;69433;48.642;9.142;2023-06-26T11:55:19;96989.84;;;29.57;37.44
80124;BME280;69433;48.642;9.142;2023-06-26T11:57:48;96992.56;;;29.57;37.53
80124;BME280;69433;48.642;9.142;2023-06-26T12:00:15;97000.69;;;29.57;37.11
80124;BME280;69433;48.642;9.142;2023-06-26T12:02:46;96994.50;;;29.56;37.14
80124;BME280;69433;48.642;9.142;2023-06-26T12:05:15;96988.66;;;29.58;37.53
80124;BME280;69433;48.642;9.142;2023-06-26T12:07:46;96999.03;;;29.59;37.55
80124;BME280;69433;48.642;9.142;2023-06-26T12:10:13;96986.53;;;29.62;37.01
80124;BME280;69433;48.642;9.142;2023-06-26T12:12:39;96991.94;;;29.62;36.98
80124;BME280;69433;48.642;9.142;2023-06-26T12:15:06;96997.38;;;29.62;37.52
80124;BME280;69433;48.642;9.142;2023-06-26T12:17:32;97000.38;;;29.64;37.14
80124;BME280;69433;48.642;9.142;2023-06-26T12:19:57;96998.00;;;29.66;36.96
80124;BME280;69433;48.642;9.142;2023-06-26T12:22:22;96990.31;;;29.64;37.33
80124;BME280;69433;48.642;9.142;2023-06-26T12:24:48;96987.28;;;29.62;37.32
80124;BME280;69433;48.642;9.142;2023-06-26T12:27:15;96990.75;;;29.63;37.20
80124;BME280;69433;48.642;9.142;2023-06-26T12:29:52;96987.16;;;29.66;37.39
80124;BME280;69433;48.642;9.142;2023-06-26T12:32:18;96988.34;;;29.65;37.34
80124;BME280;69433;48.642;9.142;2023-06-26T12:34:48;96994.06;;;29.67;37.42
80124;BME280;69433;48.642;9.142;2023-06-26T12:37:14;96996.03;;;29.66;37.51
80124;BME280;69433;48.642;9.142;2023-06-26T12:39:50;96985.63;;;29.65;37.11
80124;BME280;69433;48.642;9.142;2023-06-26T12:42:18;96991.81;;;29.65;37.16
80124;BME280;69433;48.642;9.142;2023-06-26T12:44:43;96991.81;;;29.65;37.10
80124;BME280;69433;48.642;9.142;2023-06-26T12:47:09;96994.97;;;29.64;37.47
80124;BME280;69433;48.642;9.142;2023-06-26T12:49:39;96984.13;;;29.64;37.59
80124;BME280;69433;48.642;9.142;2023-06-26T12:52:08;96991.94;;;29.62;37.48
80124;BME280;69433;48.642;9.142;2023-06-26T12:54:34;96995.84;;;29.61;37.27
80124;BME280;69433;48.642;9.142;2023-06-26T12:57:03;96980.09;;;29.59;37.49
80124;BME280;69433;48.642;9.142;2023-06-26T12:59:29;96980.53;;;29.58;37.71
80124;BME280;69433;48.642;9.142;2023-06-26T13:01:55;96980.53;;;29.58;37.39
80124;BME280;69433;48.642;9.142;2023-06-26T13:04:20;96972.09;;;29.56;37.75
80124;BME280;69433;48.642;9.142;2023-06-26T13:06:46;96985.94;;;29.58;37.16
80124;BME280;69433;48.642;9.142;2023-06-26T13:09:11;96974.78;;;29.56;37.68